createdAt,value
2022-09-18T00:01:38.482Z,91.01
2022-09-18T00:04:07.874Z,90.97
2022-09-18T00:06:38.515Z,91.05
2022-09-18T00:09:10.050Z,91.32
2022-09-18T00:11:41.308Z,91.45
2022-09-18T00:14:11.585Z,91.72
2022-09-18T00:16:40.076Z,91.48
2022-09-18T00:19:09.309Z,91.51
2022-09-18T00:21:44.408Z,91.39
2022-09-18T00:24:12.748Z,91.55
2022-09-18T00:26:41.076Z,90.65
2022-09-18T00:29:10.900Z,90.45
2022-09-18T00:31:39.410Z,90.25
2022-09-18T00:34:11.109Z,90.40
2022-09-18T00:36:39.839Z,90.71
2022-09-18T00:39:09.266Z,90.49
2022-09-18T00:41:39.954Z,90.20
2022-09-18T00:44:46.121Z,90.18
2022-09-18T00:47:17.364Z,90.35
2022-09-18T00:50:05.971Z,90.22
2022-09-18T00:52:45.677Z,90.02
2022-09-18T00:55:14.669Z,90.11
2022-09-18T00:57:48.048Z,89.97
2022-09-18T01:00:16.131Z,89.80
2022-09-18T01:02:46.239Z,89.86
2022-09-18T01:05:29.854Z,89.66
2022-09-18T01:08:20.679Z,89.90
2022-09-18T01:11:27.169Z,89.88
2022-09-18T01:14:16.946Z,90.57
2022-09-18T01:17:09.696Z,90.76
2022-09-18T01:20:11.401Z,91.10
2022-09-18T01:22:48.642Z,91.54
2022-09-18T01:25:22.797Z,92.22
2022-09-18T01:28:19.077Z,92.27
2022-09-18T01:30:49.905Z,92.13
2022-09-18T01:33:57.093Z,92.37
2022-09-18T01:36:28.341Z,92.31
2022-09-18T01:39:10.361Z,91.62
2022-09-18T01:41:40.672Z,91.14
2022-09-18T01:44:13.653Z,91.16
2022-09-18T01:46:44.465Z,91.18
2022-09-18T01:49:24.059Z,90.96
2022-09-18T01:52:06.436Z,91.10
2022-09-18T01:54:38.821Z,91.29
2022-09-18T01:57:23.214Z,91.41
2022-09-18T02:00:05.254Z,91.14
2022-09-18T02:02:54.380Z,91.21
2022-09-18T02:05:40.006Z,91.24
2022-09-18T02:08:19.128Z,91.04
2022-09-18T02:10:55.620Z,90.78
2022-09-18T02:13:28.948Z,90.69
2022-09-18T02:16:01.566Z,90.56
2022-09-18T02:18:34.700Z,90.86
2022-09-18T02:21:12.015Z,90.79
2022-09-18T02:23:41.570Z,90.95
2022-09-18T02:26:11.345Z,91.34
2022-09-18T02:28:41.186Z,92.28
2022-09-18T02:31:09.602Z,92.69
2022-09-18T02:33:38.858Z,92.97
2022-09-18T02:36:39.293Z,94.57
2022-09-18T02:39:27.018Z,94.57
2022-09-18T02:42:13.630Z,94.87
2022-09-18T02:44:43.952Z,94.94
2022-09-18T02:47:26.617Z,95.12
2022-09-18T02:50:13.294Z,95.85
2022-09-18T02:52:43.397Z,95.64
2022-09-18T02:55:21.701Z,95.28
2022-09-18T02:57:56.356Z,94.88
2022-09-18T03:00:26.171Z,94.45
2022-09-18T03:02:58.994Z,93.71
2022-09-18T03:05:38.257Z,93.41
2022-09-18T03:08:07.069Z,93.64
2022-09-18T03:10:35.313Z,93.63
2022-09-18T03:13:04.227Z,93.45
2022-09-18T03:15:32.821Z,93.78
2022-09-18T03:18:01.088Z,93.78
2022-09-18T03:20:29.361Z,94.23
2022-09-18T03:22:57.638Z,94.26
2022-09-18T03:25:25.914Z,94.20
2022-09-18T03:27:56.075Z,94.48
2022-09-18T03:30:32.022Z,94.92
2022-09-18T03:33:00.765Z,94.89
2022-09-18T03:35:29.797Z,95.27
2022-09-18T03:37:58.050Z,95.25
2022-09-18T03:40:31.128Z,95.05
2022-09-18T03:43:02.057Z,94.76
2022-09-18T03:45:30.428Z,94.88
2022-09-18T03:47:58.722Z,95.19
2022-09-18T03:50:26.978Z,95.30
2022-09-18T03:52:56.112Z,95.57
2022-09-18T03:55:54.059Z,96.11
2022-09-18T03:58:41.085Z,96.46
2022-09-18T04:01:10.430Z,96.64
2022-09-18T04:03:55.336Z,96.70
2022-09-18T04:06:41.846Z,96.23
2022-09-18T04:09:33.018Z,95.99
2022-09-18T04:12:01.346Z,95.97
2022-09-18T04:14:30.346Z,96.04
2022-09-18T04:16:58.820Z,96.37
2022-09-18T04:19:28.017Z,96.51
2022-09-18T04:21:58.142Z,96.34
2022-09-18T04:24:26.602Z,96.30
2022-09-18T04:26:55.200Z,95.91
2022-09-18T04:29:24.625Z,95.52
2022-09-18T04:31:53.663Z,95.32
2022-09-18T04:34:22.690Z,95.55
2022-09-18T04:36:50.966Z,95.34
2022-09-18T04:39:19.376Z,94.57
2022-09-18T04:41:47.505Z,94.00
2022-09-18T04:44:15.998Z,94.22
2022-09-18T04:46:44.668Z,94.39
2022-09-18T04:49:14.701Z,94.75
2022-09-18T04:51:43.287Z,94.84
2022-09-18T04:54:11.917Z,94.63
2022-09-18T04:56:41.373Z,94.40
2022-09-18T04:59:10.808Z,93.71
2022-09-18T05:01:41.545Z,93.21
2022-09-18T05:04:12.416Z,92.64
2022-09-18T05:06:51.065Z,93.56
2022-09-18T05:09:19.430Z,93.27
2022-09-18T05:11:48.752Z,92.71
2022-09-18T05:14:17.736Z,92.01
2022-09-18T05:16:49.017Z,91.12
2022-09-18T05:19:27.964Z,91.13
2022-09-18T05:22:01.507Z,90.69
2022-09-18T05:24:32.221Z,89.71
2022-09-18T05:27:01.060Z,89.52
2022-09-18T05:29:30.204Z,88.90
2022-09-18T05:32:03.617Z,88.32
2022-09-18T05:34:35.789Z,88.24
2022-09-18T05:37:04.168Z,88.19
2022-09-18T05:39:32.546Z,88.76
2022-09-18T05:42:03.397Z,88.24
2022-09-18T05:44:33.384Z,86.77
2022-09-18T05:47:02.140Z,86.32
2022-09-18T05:49:31.256Z,85.79
2022-09-18T05:51:59.589Z,85.39
2022-09-18T05:54:30.293Z,85.04
2022-09-18T05:57:00.206Z,85.01
2022-09-18T05:59:29.608Z,84.95
2022-09-18T06:01:58.457Z,84.10
2022-09-18T06:04:42.943Z,84.01
2022-09-18T06:07:13.278Z,84.44
2022-09-18T06:09:41.561Z,85.65
2022-09-18T06:12:09.813Z,87.28
2022-09-18T06:14:38.144Z,87.75
2022-09-18T06:17:06.340Z,87.89
2022-09-18T06:19:35.420Z,87.93
2022-09-18T06:22:03.914Z,86.71
2022-09-18T06:24:33.101Z,86.05
2022-09-18T06:27:07.152Z,84.95
2022-09-18T06:29:35.398Z,84.90
2022-09-18T06:32:10.415Z,85.28
2022-09-18T06:34:39.759Z,82.69
2022-09-18T06:37:10.385Z,80.70
2022-09-18T06:39:56.190Z,78.38
2022-09-18T06:42:39.187Z,77.64
2022-09-18T06:45:16.042Z,77.67
2022-09-18T06:47:45.597Z,76.81
2022-09-18T06:50:13.996Z,76.96
2022-09-18T06:52:42.201Z,75.93
2022-09-18T06:55:11.333Z,74.83
2022-09-18T06:57:39.725Z,73.20
2022-09-18T07:00:10.485Z,73.64
2022-09-18T07:02:39.511Z,71.06
2022-09-18T07:05:32.764Z,67.80
2022-09-18T07:08:01.865Z,67.82
2022-09-18T07:10:30.607Z,68.39
2022-09-18T07:13:02.398Z,66.97
2022-09-18T07:15:31.909Z,66.93
2022-09-18T07:18:01.907Z,66.24
2022-09-18T07:20:30.950Z,66.89
2022-09-18T07:23:01.395Z,63.35
2022-09-18T07:25:40.469Z,63.34
2022-09-18T07:28:11.248Z,61.25
2022-09-18T07:30:46.665Z,60.19
2022-09-18T07:33:16.107Z,60.76
2022-09-18T07:35:47.950Z,56.26
2022-09-18T07:38:16.438Z,55.87
2022-09-18T07:40:55.903Z,55.99
2022-09-18T07:43:34.761Z,55.67
2022-09-18T07:46:03.120Z,55.67
2022-09-18T07:48:34.024Z,56.08
2022-09-18T07:51:11.136Z,57.18
2022-09-18T07:53:39.801Z,56.50
2022-09-18T07:56:12.300Z,55.49
2022-09-18T07:58:40.850Z,53.97
2022-09-18T08:01:16.081Z,54.46
2022-09-18T08:03:48.348Z,53.50
2022-09-18T08:06:17.786Z,53.21
2022-09-18T08:09:08.053Z,51.03
2022-09-18T08:11:54.569Z,51.49
2022-09-18T08:14:49.146Z,51.50
2022-09-18T08:17:34.675Z,50.57
2022-09-18T08:20:16.377Z,50.47
2022-09-18T08:22:56.157Z,50.64
2022-09-18T08:25:28.109Z,50.37
2022-09-18T08:28:04.137Z,48.99
2022-09-18T08:30:37.584Z,48.42
2022-09-18T08:33:09.495Z,48.81
2022-09-18T08:35:38.112Z,49.03
2022-09-18T08:38:38.690Z,46.98
2022-09-18T08:42:07.045Z,45.71
2022-09-18T08:45:02.069Z,44.81
2022-09-18T08:47:40.345Z,45.01
2022-09-18T08:50:21.365Z,45.34
2022-09-18T08:52:53.910Z,45.26
2022-09-18T08:55:40.393Z,44.56
2022-09-18T08:58:35.091Z,44.05
2022-09-18T09:01:10.178Z,42.66
2022-09-18T09:04:07.078Z,41.96
2022-09-18T09:06:42.018Z,42.60
2022-09-18T09:09:34.097Z,43.60
2022-09-18T09:12:24.117Z,43.36
2022-09-18T09:15:28.774Z,42.92
2022-09-18T09:18:09.622Z,43.98
2022-09-18T09:20:57.634Z,44.42
2022-09-18T09:23:42.985Z,43.36
2022-09-18T09:26:25.665Z,42.60
2022-09-18T09:29:16.884Z,43.21
2022-09-18T09:32:11.175Z,43.18
2022-09-18T09:35:11.169Z,42.35
2022-09-18T09:37:48.802Z,42.26
2022-09-18T09:40:21.518Z,42.64
2022-09-18T09:42:52.504Z,42.02
2022-09-18T09:45:30.669Z,42.56
2022-09-18T09:48:16.745Z,42.63
2022-09-18T09:50:52.697Z,43.39
2022-09-18T09:53:24.759Z,43.56
2022-09-18T09:56:12.033Z,48.16
2022-09-18T09:58:54.774Z,50.70
2022-09-18T10:01:42.598Z,51.94
2022-09-18T10:04:37.940Z,52.37
2022-09-18T10:07:40.721Z,53.10
2022-09-18T10:10:35.682Z,54.91
2022-09-18T10:13:14.908Z,56.35
2022-09-18T10:15:48.208Z,57.15
2022-09-18T10:18:35.492Z,57.71
2022-09-18T10:21:15.801Z,57.12
2022-09-18T10:24:00.101Z,55.68
2022-09-18T10:26:40.120Z,54.88
2022-09-18T10:29:10.281Z,54.29
2022-09-18T10:31:50.255Z,53.51
2022-09-18T10:34:33.957Z,52.34
2022-09-18T10:37:02.696Z,50.76
2022-09-18T10:39:31.951Z,50.24
2022-09-18T10:42:06.957Z,49.80
2022-09-18T10:44:37.819Z,48.66
2022-09-18T10:47:12.974Z,49.26
2022-09-18T10:49:49.970Z,49.41
2022-09-18T10:52:30.169Z,50.74
2022-09-18T10:55:05.776Z,51.99
2022-09-18T10:57:49.947Z,51.85
2022-09-18T11:00:21.161Z,48.75
2022-09-18T11:02:54.969Z,48.90
2022-09-18T11:05:37.378Z,49.30
2022-09-18T11:08:14.831Z,48.59
2022-09-18T11:10:51.037Z,48.37
2022-09-18T11:13:26.795Z,48.86
2022-09-18T11:16:02.139Z,49.90
2022-09-18T11:18:32.763Z,50.47
2022-09-18T11:21:05.428Z,50.15
2022-09-18T11:23:35.962Z,49.99
2022-09-18T11:26:26.798Z,50.69
2022-09-18T11:29:02.622Z,48.59
2022-09-18T11:32:15.819Z,48.57
2022-09-18T11:34:51.281Z,47.18
2022-09-18T11:37:43.362Z,46.31
2022-09-18T11:40:33.410Z,46.90
2022-09-18T11:43:05.751Z,46.16
2022-09-18T11:45:54.808Z,46.01
2022-09-18T11:48:35.537Z,47.37
2022-09-18T11:51:11.381Z,45.40
2022-09-18T11:53:49.370Z,45.41
2022-09-18T11:56:17.461Z,45.65
2022-09-18T11:59:12.208Z,46.30
2022-09-18T12:01:59.260Z,45.23
2022-09-18T12:04:53.338Z,45.21
2022-09-18T12:07:47.522Z,45.65
2022-09-18T12:10:36.453Z,46.69
2022-09-18T12:13:28.090Z,47.11
2022-09-18T12:16:20.252Z,47.37
2022-09-18T12:19:23.645Z,47.52
2022-09-18T12:22:12.880Z,47.11
2022-09-18T12:24:41.717Z,47.50
2022-09-18T12:27:27.665Z,46.34
2022-09-18T12:30:11.598Z,46.73
2022-09-18T12:33:03.798Z,46.52
2022-09-18T12:35:44.357Z,46.75
2022-09-18T12:38:40.724Z,47.05
2022-09-18T12:41:19.152Z,47.33
2022-09-18T12:44:04.541Z,46.82
2022-09-18T12:46:50.670Z,47.87
2022-09-18T12:49:45.051Z,48.00
2022-09-18T12:52:13.188Z,48.49
2022-09-18T12:55:14.733Z,49.25
2022-09-18T12:58:19.664Z,49.26
2022-09-18T13:00:50.587Z,49.02
2022-09-18T13:03:22.574Z,49.11
2022-09-18T13:06:13.509Z,49.23
2022-09-18T13:08:49.153Z,49.16
2022-09-18T13:11:44.719Z,49.13
2022-09-18T13:14:33.366Z,48.94
2022-09-18T13:17:13.813Z,49.15
2022-09-18T13:19:57.924Z,49.28
2022-09-18T13:22:28.360Z,48.94
2022-09-18T13:24:57.248Z,48.56
2022-09-18T13:27:26.349Z,48.68
2022-09-18T13:29:57.181Z,48.68
2022-09-18T13:32:35.168Z,48.53
2022-09-18T13:35:14.928Z,48.67
2022-09-18T13:37:43.802Z,47.97
2022-09-18T13:40:33.578Z,47.07
2022-09-18T13:43:36.972Z,47.31
2022-09-18T13:46:07.243Z,47.76
2022-09-18T13:48:46.836Z,47.87
2022-09-18T13:51:22.189Z,47.66
2022-09-18T13:54:13.709Z,47.93
2022-09-18T13:57:15.150Z,48.11
2022-09-18T14:00:06.751Z,48.52
2022-09-18T14:02:41.194Z,48.53
2022-09-18T14:05:32.298Z,48.64
2022-09-18T14:08:19.226Z,49.55
2022-09-18T14:11:05.073Z,49.73
2022-09-18T14:13:51.530Z,49.82
2022-09-18T14:16:20.234Z,50.38
2022-09-18T14:18:48.782Z,50.07
2022-09-18T14:21:40.918Z,49.89
2022-09-18T14:24:27.608Z,50.04
2022-09-18T14:27:01.655Z,50.00
2022-09-18T14:29:32.880Z,49.85
2022-09-18T14:32:02.489Z,49.37
2022-09-18T14:34:34.474Z,48.98
2022-09-18T14:37:19.192Z,49.13
2022-09-18T14:39:47.550Z,48.89
2022-09-18T14:42:36.962Z,49.08
2022-09-18T14:45:11.063Z,49.50
2022-09-18T14:47:43.948Z,49.66
2022-09-18T14:50:41.388Z,49.82
2022-09-18T14:53:20.328Z,50.18
2022-09-18T14:55:52.672Z,50.08
2022-09-18T14:58:22.478Z,50.24
2022-09-18T15:00:55.495Z,50.55
2022-09-18T15:03:31.454Z,50.71
2022-09-18T15:06:10.796Z,50.71
2022-09-18T15:08:39.175Z,50.51
2022-09-18T15:11:07.552Z,50.37
2022-09-18T15:13:38.080Z,50.98
2022-09-18T15:16:07.190Z,51.64
2022-09-18T15:18:42.705Z,51.46
2022-09-18T15:21:21.492Z,51.43
2022-09-18T15:23:50.054Z,51.64
2022-09-18T15:26:19.151Z,51.91
2022-09-18T15:28:49.720Z,52.13
2022-09-18T15:31:19.878Z,52.75
2022-09-18T15:34:13.055Z,53.59
2022-09-18T15:36:41.794Z,53.62
2022-09-18T15:39:31.524Z,53.58
2022-09-18T15:42:23.252Z,54.08
2022-09-18T15:44:52.251Z,54.56
2022-09-18T15:47:26.296Z,54.94
2022-09-18T15:49:55.619Z,55.18
2022-09-18T15:52:37.982Z,55.37
2022-09-18T15:55:31.990Z,55.79
2022-09-18T15:58:05.555Z,55.48
2022-09-18T16:00:36.932Z,55.45
2022-09-18T16:03:07.232Z,55.16
2022-09-18T16:05:38.228Z,55.37
2022-09-18T16:08:17.791Z,55.11
2022-09-18T16:10:51.571Z,55.43
2022-09-18T16:13:22.519Z,55.70
2022-09-18T16:16:08.935Z,55.81
2022-09-18T16:19:08.771Z,55.92
2022-09-18T16:21:44.777Z,56.53
2022-09-18T16:24:23.960Z,57.08
2022-09-18T16:26:52.356Z,57.26
2022-09-18T16:29:22.340Z,58.15
2022-09-18T16:31:50.670Z,58.54
2022-09-18T16:34:29.248Z,59.12
2022-09-18T16:36:57.452Z,59.59
2022-09-18T16:39:27.255Z,59.64
2022-09-18T16:41:55.510Z,59.44
2022-09-18T16:44:25.089Z,59.26
2022-09-18T16:46:58.754Z,59.20
2022-09-18T16:49:30.708Z,59.15
2022-09-18T16:51:59.449Z,59.06
2022-09-18T16:54:27.747Z,59.30
2022-09-18T16:57:05.939Z,59.78
2022-09-18T16:59:34.573Z,60.39
2022-09-18T17:02:04.847Z,61.32
2022-09-18T17:04:34.408Z,61.66
2022-09-18T17:07:03.027Z,62.55
2022-09-18T17:09:32.965Z,62.90
2022-09-18T17:12:01.445Z,62.94
2022-09-18T17:14:29.810Z,63.13
2022-09-18T17:16:58.027Z,62.65
2022-09-18T17:19:26.374Z,62.26
2022-09-18T17:21:54.639Z,62.02
2022-09-18T17:24:26.275Z,61.69
2022-09-18T17:26:54.684Z,61.87
2022-09-18T17:29:22.939Z,61.67
2022-09-18T17:31:52.490Z,61.87
2022-09-18T17:34:22.380Z,62.34
2022-09-18T17:36:50.612Z,62.64
2022-09-18T17:39:18.798Z,62.99
2022-09-18T17:41:46.935Z,62.96
2022-09-18T17:44:15.588Z,62.77
2022-09-18T17:46:44.627Z,62.29
2022-09-18T17:49:13.045Z,61.98
2022-09-18T17:51:41.340Z,61.75
2022-09-18T17:54:10.716Z,61.65
2022-09-18T17:56:39.135Z,61.45
2022-09-18T17:59:09.431Z,61.26
2022-09-18T18:01:40.303Z,61.12
2022-09-18T18:04:09.256Z,61.29
2022-09-18T18:06:37.736Z,61.18
2022-09-18T18:09:09.772Z,62.08
2022-09-18T18:11:38.390Z,62.15
2022-09-18T18:14:06.859Z,62.17
2022-09-18T18:16:35.631Z,62.74
2022-09-18T18:19:06.180Z,63.20
2022-09-18T18:21:34.864Z,63.20
2022-09-18T18:24:09.027Z,63.16
2022-09-18T18:26:39.935Z,63.73
2022-09-18T18:29:11.997Z,64.07
2022-09-18T18:31:42.203Z,64.01
2022-09-18T18:34:11.908Z,64.10
2022-09-18T18:36:42.269Z,64.07
2022-09-18T18:39:12.457Z,63.91
2022-09-18T18:41:41.357Z,63.97
2022-09-18T18:44:11.683Z,63.96
2022-09-18T18:46:40.221Z,64.33
2022-09-18T18:49:15.403Z,64.25
2022-09-18T18:51:47.610Z,64.57
2022-09-18T18:54:18.185Z,65.23
2022-09-18T18:56:47.329Z,64.67
2022-09-18T18:59:20.967Z,64.77
2022-09-18T19:01:49.518Z,64.70
2022-09-18T19:04:21.427Z,65.00
2022-09-18T19:06:49.807Z,65.11
2022-09-18T19:09:26.483Z,65.31
2022-09-18T19:11:54.835Z,65.53
2022-09-18T19:14:29.279Z,65.85
2022-09-18T19:16:58.068Z,65.92
2022-09-18T19:19:28.497Z,66.44
2022-09-18T19:21:59.983Z,66.34
2022-09-18T19:24:30.087Z,66.01
2022-09-18T19:26:59.159Z,65.55
2022-09-18T19:29:28.149Z,65.67
2022-09-18T19:31:57.919Z,66.12
2022-09-18T19:34:26.335Z,66.51
2022-09-18T19:36:54.519Z,67.15
2022-09-18T19:39:24.754Z,67.34
2022-09-18T19:42:19.432Z,67.41
2022-09-18T19:44:52.989Z,66.21
2022-09-18T19:47:28.472Z,64.81
2022-09-18T19:50:01.668Z,64.44
2022-09-18T19:52:30.168Z,65.25
2022-09-18T19:54:59.079Z,65.96
2022-09-18T19:57:28.663Z,66.02
2022-09-18T19:59:58.885Z,65.18
2022-09-18T20:02:27.265Z,63.39
2022-09-18T20:04:56.974Z,63.21
2022-09-18T20:07:25.352Z,62.29
2022-09-18T20:09:53.832Z,61.26
2022-09-18T20:12:22.109Z,61.12
2022-09-18T20:14:50.952Z,60.90
2022-09-18T20:17:19.275Z,61.05
2022-09-18T20:19:47.637Z,61.19
2022-09-18T20:22:16.013Z,60.84
2022-09-18T20:24:44.307Z,60.96
2022-09-18T20:27:13.181Z,60.94
2022-09-18T20:29:41.630Z,61.00
2022-09-18T20:32:10.043Z,61.59
2022-09-18T20:34:38.846Z,61.99
2022-09-18T20:37:09.659Z,62.15
2022-09-18T20:39:37.859Z,62.36
2022-09-18T20:42:06.233Z,62.90
2022-09-18T20:44:35.278Z,63.15
2022-09-18T20:47:05.314Z,63.43
2022-09-18T20:49:34.012Z,63.67
2022-09-18T20:52:03.734Z,63.98
2022-09-18T20:54:32.017Z,64.46
2022-09-18T20:57:00.783Z,64.11
2022-09-18T20:59:29.280Z,63.59
2022-09-18T21:01:58.419Z,63.45
2022-09-18T21:04:26.732Z,63.41
2022-09-18T21:06:56.537Z,62.89
2022-09-18T21:09:26.973Z,63.44
2022-09-18T21:11:57.045Z,63.92
2022-09-18T21:14:27.650Z,64.49
2022-09-18T21:16:56.238Z,64.32
2022-09-18T21:19:26.427Z,64.93
2022-09-18T21:21:54.972Z,65.34
2022-09-18T21:24:23.345Z,65.13
2022-09-18T21:26:51.576Z,65.34
2022-09-18T21:29:26.248Z,65.14
2022-09-18T21:31:58.874Z,64.86
2022-09-18T21:34:31.350Z,65.07
2022-09-18T21:37:02.999Z,64.82
2022-09-18T21:39:32.311Z,64.25
2022-09-18T21:42:01.876Z,63.54
2022-09-18T21:44:31.981Z,62.82
2022-09-18T21:47:02.625Z,62.97
2022-09-18T21:49:31.435Z,63.11
2022-09-18T21:52:06.067Z,62.53
2022-09-18T21:54:34.984Z,62.80
2022-09-18T21:57:03.476Z,62.59
2022-09-18T21:59:32.540Z,62.32
2022-09-18T22:02:05.936Z,62.63
2022-09-18T22:04:34.334Z,61.72
2022-09-18T22:07:02.581Z,61.37
2022-09-18T22:09:35.067Z,61.45
2022-09-18T22:12:03.552Z,60.62
2022-09-18T22:14:32.985Z,59.93
2022-09-18T22:17:03.736Z,59.24
2022-09-18T22:19:34.262Z,59.38
2022-09-18T22:22:03.734Z,59.37
2022-09-18T22:24:31.888Z,59.79
2022-09-18T22:27:02.952Z,59.77
2022-09-18T22:29:34.380Z,59.58
2022-09-18T22:32:03.052Z,60.50
2022-09-18T22:34:32.773Z,59.42
2022-09-18T22:37:01.787Z,59.37
2022-09-18T22:39:30.551Z,59.55
2022-09-18T22:41:58.887Z,59.31
2022-09-18T22:44:27.210Z,59.44
2022-09-18T22:46:55.783Z,59.62
2022-09-18T22:49:24.175Z,59.98
2022-09-18T22:51:52.572Z,59.73
2022-09-18T22:54:25.345Z,59.51
2022-09-18T22:56:54.532Z,59.02
2022-09-18T22:59:24.452Z,59.78
2022-09-18T23:01:57.177Z,60.71
2022-09-18T23:04:29.324Z,61.25
2022-09-18T23:06:59.416Z,60.94
2022-09-18T23:09:28.196Z,60.18
2022-09-18T23:11:57.193Z,59.72
2022-09-18T23:14:28.033Z,59.34
2022-09-18T23:16:57.738Z,59.45
2022-09-18T23:19:34.103Z,59.27
2022-09-18T23:22:02.735Z,59.16
2022-09-18T23:24:31.986Z,59.37
2022-09-18T23:27:00.261Z,59.66
2022-09-18T23:29:29.048Z,59.62
2022-09-18T23:31:59.905Z,59.73
2022-09-18T23:34:31.134Z,60.81
2022-09-18T23:37:00.123Z,59.91
2022-09-18T23:39:34.002Z,59.65
2022-09-18T23:42:05.957Z,59.49
2022-09-18T23:44:34.782Z,58.85
2022-09-18T23:47:03.719Z,58.82
2022-09-18T23:49:32.151Z,58.75
2022-09-18T23:52:00.952Z,58.51
2022-09-18T23:54:30.873Z,58.60
2022-09-18T23:56:59.545Z,58.59
2022-09-18T23:59:28.022Z,57.88
